Time;durP1;ratioP1;P1;durP2;ratioP2;P2;SDS_P1;SDS_P2;PMS_P1;PMS_P2;Temp;Humidity;BMP_temperature;BMP_pressure;BME280_temperature;BME280_humidity;BME280_pressure;Samples;Min_cycle;Max_cycle;Signal;HPM_P1;HPM_P2
2021/12/30 00:01:50;;;;;;;33.25;5.40;;;;;;;11.47;88.78;100793.94;5117527;27;20039;-68
2021/12/30 00:04:24;;;;;;;28.88;4.82;;;;;;;11.34;89.50;100793.56;5133637;27;20054;-68
2021/12/30 00:06:51;;;;;;;39.75;5.47;;;;;;;11.53;88.49;100809.28;5110985;27;20035;-67
2021/12/30 00:09:20;;;;;;;28.10;5.03;;;;;;;11.44;88.64;100814.69;5135759;27;20096;-68
2021/12/30 00:11:47;;;;;;;34.90;5.45;;;;;;;11.38;89.02;100815.31;5097468;28;20104;-67
2021/12/30 00:14:25;;;;;;;30.17;5.05;;;;;;;11.43;88.32;100824.47;5100100;27;20444;-68
2021/12/30 00:16:52;;;;;;;33.70;4.88;;;;;;;11.46;88.55;100826.84;5117190;27;20035;-67
2021/12/30 00:19:19;;;;;;;30.88;5.53;;;;;;;11.44;88.46;100826.16;5116441;27;20042;-68
2021/12/30 00:21:46;;;;;;;38.42;6.47;;;;;;;11.42;88.61;100832.59;5117183;27;20054;-67
2021/12/30 00:24:12;;;;;;;31.00;5.63;;;;;;;11.48;87.97;100835.47;5135157;27;20170;-68
2021/12/30 00:26:40;;;;;;;33.00;5.15;;;;;;;11.37;88.69;100841.06;5116755;27;20043;-68
2021/12/30 00:29:06;;;;;;;29.75;5.40;;;;;;;11.22;89.60;100837.28;5135367;27;20050;-68
2021/12/30 00:31:33;;;;;;;32.50;4.75;;;;;;;11.41;88.48;100852.22;5133866;27;20491;-68
2021/12/30 00:34:01;;;;;;;31.05;4.50;;;;;;;11.53;88.30;100853.59;5097077;28;20074;-67
2021/12/30 00:36:29;;;;;;;39.05;6.07;;;;;;;11.40;88.61;100856.66;5097123;28;20044;-68
2021/12/30 00:38:55;;;;;;;35.88;6.65;;;;;;;11.46;88.72;100849.88;5097003;28;20126;-67
2021/12/30 00:41:22;;;;;;;34.30;5.78;;;;;;;11.47;88.19;100852.38;5135210;27;20043;-68
2021/12/30 00:43:49;;;;;;;37.67;5.43;;;;;;;11.41;88.63;100853.03;5116834;27;20066;-67
2021/12/30 00:46:16;;;;;;;33.78;5.47;;;;;;;11.24;89.31;100856.56;5116061;27;20407;-67
2021/12/30 00:48:43;;;;;;;35.63;5.68;;;;;;;11.47;88.21;100862.19;5116294;27;20121;-67
2021/12/30 00:51:10;;;;;;;35.50;5.68;;;;;;;11.44;87.78;100873.13;5134816;27;20096;-68
2021/12/30 00:53:37;;;;;;;31.20;5.07;;;;;;;11.41;88.30;100874.28;5134863;27;20043;-67
2021/12/30 00:56:04;;;;;;;36.60;5.32;;;;;;;11.38;88.50;100877.25;5134551;27;20100;-68
2021/12/30 00:58:31;;;;;;;35.70;5.07;;;;;;;11.25;88.78;100885.63;5134867;27;20074;-68
2021/12/30 01:00:59;;;;;;;29.27;4.55;;;;;;;11.39;88.58;100886.03;5134572;27;20380;-67
2021/12/30 01:03:27;;;;;;;43.10;5.55;;;;;;;11.33;88.84;100872.41;5113827;27;20125;-67
2021/12/30 01:05:54;;;;;;;36.75;5.55;;;;;;;11.39;88.40;100878.91;5134137;27;20039;-68
2021/12/30 01:08:21;;;;;;;35.78;5.32;;;;;;;11.32;88.90;100878.69;5134463;27;20066;-67
2021/12/30 01:10:49;;;;;;;37.17;5.22;;;;;;;11.39;88.58;100886.88;5083446;27;20031;-68
2021/12/30 01:13:23;;;;;;;39.78;5.53;;;;;;;11.26;89.03;100882.00;5081195;28;20052;-68
2021/12/30 01:16:15;;;;;;;40.10;5.60;;;;;;;11.43;88.56;100882.09;5115791;27;20062;-67
2021/12/30 01:18:54;;;;;;;35.42;5.32;;;;;;;11.37;88.94;100880.03;5118892;27;20045;-67
2021/12/30 01:21:23;;;;;;;39.10;6.07;;;;;;;11.41;88.40;100884.91;5118371;27;20478;-68
2021/12/30 01:23:50;;;;;;;38.08;6.25;;;;;;;11.49;88.14;100884.13;5134159;27;20126;-68
2021/12/30 01:26:17;;;;;;;38.75;5.65;;;;;;;11.43;88.71;100890.88;5115688;27;20100;-68
2021/12/30 01:28:44;;;;;;;33.50;5.55;;;;;;;11.32;89.10;100889.31;5133682;27;20053;-67
2021/12/30 01:31:11;;;;;;;31.25;5.47;;;;;;;11.38;88.79;100895.84;5138678;27;20068;-67
2021/12/30 01:33:39;;;;;;;46.08;5.53;;;;;;;11.42;88.58;100891.03;5132250;27;20039;-67
2021/12/30 01:36:06;;;;;;;31.33;5.00;;;;;;;11.32;89.81;100896.47;5121856;27;20051;-67
2021/12/30 01:38:33;;;;;;;33.47;4.80;;;;;;;11.34;89.57;100902.44;5095738;28;20516;-67
2021/12/30 01:41:01;;;;;;;40.45;5.03;;;;;;;11.21;90.04;100905.50;5095324;28;20131;-67
2021/12/30 01:43:29;;;;;;;35.38;4.80;;;;;;;11.26;90.30;100910.34;5113696;27;20047;-68
2021/12/30 01:45:56;;;;;;;29.08;4.75;;;;;;;11.30;90.14;100914.38;5114111;27;20066;-67
2021/12/30 01:48:23;;;;;;;33.60;5.80;;;;;;;11.38;90.05;100916.25;5103542;28;20052;-67
2021/12/30 01:50:50;;;;;;;48.85;5.82;;;;;;;11.51;88.85;100917.53;5113098;28;20119;-67
2021/12/30 01:53:18;;;;;;;42.13;6.10;;;;;;;11.46;88.88;100922.47;5112189;28;20051;-67
2021/12/30 01:55:46;;;;;;;33.10;5.25;;;;;;;11.39;89.85;100920.56;5112896;28;20050;-67
2021/12/30 01:58:13;;;;;;;32.78;5.07;;;;;;;11.42;89.59;100917.59;5112605;28;20101;-67
2021/12/30 02:00:43;;;;;;;36.35;4.90;;;;;;;11.36;90.05;100899.66;5113030;28;20063;-67
2021/12/30 02:03:10;;;;;;;37.78;5.90;;;;;;;11.52;89.17;100900.56;5111708;28;20047;-67
2021/12/30 02:05:38;;;;;;;24.00;4.38;;;;;;;11.43;89.50;100900.69;5110923;28;20088;-67
2021/12/30 02:08:06;;;;;;;33.65;5.50;;;;;;;11.55;89.29;100901.25;5095137;28;20122;-67
2021/12/30 02:10:35;;;;;;;43.80;5.28;;;;;;;11.49;89.65;100897.41;5112884;28;20054;-67
2021/12/30 02:13:02;;;;;;;29.50;4.70;;;;;;;11.31;90.10;100906.25;5112582;28;20046;-67
2021/12/30 02:15:29;;;;;;;45.60;5.60;;;;;;;11.44;89.75;100907.66;5094705;28;20042;-67
2021/12/30 02:17:55;;;;;;;29.73;5.72;;;;;;;11.55;89.35;100903.91;5112748;28;20504;-67
2021/12/30 02:23:27;;;;;;;39.33;4.88;;;;;;;11.54;89.69;100903.09;5089974;27;20389;-68
2021/12/30 02:25:58;;;;;;;30.67;4.68;;;;;;;11.64;89.54;100897.66;5054804;28;20048;-67
2021/12/30 02:28:29;;;;;;;30.23;4.63;;;;;;;11.54;89.93;100900.44;5071413;28;20445;-68
2021/12/30 02:30:58;;;;;;;32.20;5.13;;;;;;;11.43;90.91;100903.34;5089640;28;20519;-68
2021/12/30 02:33:26;;;;;;;30.20;4.63;;;;;;;11.49;90.96;100898.22;5088891;28;20361;-68
2021/12/30 02:35:54;;;;;;;30.88;6.10;;;;;;;11.42;91.42;100894.53;5089140;28;20040;-68
2021/12/30 02:38:22;;;;;;;30.80;5.68;;;;;;;11.48;91.58;100898.41;5087300;28;20914;-67
2021/12/30 02:40:53;;;;;;;33.63;5.45;;;;;;;11.59;91.25;100905.25;5087905;28;20075;-68
2021/12/30 02:43:23;;;;;;;35.33;5.28;;;;;;;11.49;92.31;100892.09;5088965;28;20037;-67
2021/12/30 02:45:50;;;;;;;29.58;4.80;;;;;;;11.40;92.37;100887.72;5087407;28;20048;-68
2021/12/30 02:48:21;;;;;;;30.70;4.60;;;;;;;11.47;92.72;100904.69;5089064;28;20078;-68
2021/12/30 02:50:50;;;;;;;36.20;5.35;;;;;;;11.67;92.04;100900.00;5089115;28;20055;-68
2021/12/30 02:53:19;;;;;;;29.05;5.75;;;;;;;11.53;91.92;100906.72;5071635;28;20047;-67
2021/12/30 02:55:47;;;;;;;28.65;5.43;;;;;;;11.48;92.92;100906.38;5087369;28;20044;-68
2021/12/30 02:58:14;;;;;;;27.45;4.88;;;;;;;11.54;93.00;100905.75;5084163;28;20036;-68
2021/12/30 03:00:42;;;;;;;29.85;5.45;;;;;;;11.62;92.52;100904.94;5087641;28;20043;-67
2021/12/30 03:03:19;;;;;;;35.30;5.55;;;;;;;11.70;92.54;100910.31;5071764;28;20044;-68
2021/12/30 03:05:47;;;;;;;30.80;5.43;;;;;;;11.66;92.96;100912.47;5066042;28;20036;-67
2021/12/30 03:08:15;;;;;;;28.80;5.43;;;;;;;11.83;92.50;100908.06;5067837;28;20056;-67
2021/12/30 03:10:42;;;;;;;27.33;5.30;;;;;;;11.88;92.30;100916.41;5067645;28;20116;-67
2021/12/30 03:13:13;;;;;;;35.03;5.85;;;;;;;11.87;93.05;100922.69;5051145;28;20045;-67
2021/12/30 03:15:41;;;;;;;28.90;6.30;;;;;;;11.79;93.76;100924.47;5067821;28;20040;-67
2021/12/30 03:18:08;;;;;;;36.47;6.47;;;;;;;11.76;93.82;100928.28;5034864;28;20052;-67
2021/12/30 03:20:35;;;;;;;26.10;5.50;;;;;;;11.86;94.17;100931.69;5050924;28;20043;-68
2021/12/30 03:23:03;;;;;;;30.65;6.20;;;;;;;11.75;94.09;100937.28;5049435;28;20445;-67
2021/12/30 03:25:30;;;;;;;31.33;6.82;;;;;;;11.94;95.10;100935.41;5067810;28;20063;-67
2021/12/30 03:27:57;;;;;;;27.75;6.70;;;;;;;11.76;95.98;100930.13;5051237;28;20045;-67
2021/12/30 03:30:25;;;;;;;33.45;6.85;;;;;;;11.85;95.92;100930.00;5067186;28;20045;-67
2021/12/30 03:32:52;;;;;;;28.48;6.28;;;;;;;11.87;95.72;100922.69;5064256;28;20041;-68
2021/12/30 03:35:19;;;;;;;28.45;6.95;;;;;;;11.88;96.07;100934.19;5042209;28;20057;-68
2021/12/30 03:37:46;;;;;;;34.33;6.65;;;;;;;11.75;96.75;100923.13;5035385;28;20045;-68
2021/12/30 03:40:16;;;;;;;30.70;7.28;;;;;;;11.80;96.85;100926.16;5034831;28;20045;-68
2021/12/30 03:42:44;;;;;;;22.02;6.28;;;;;;;11.67;97.80;100932.72;5039501;28;20049;-68
2021/12/30 03:45:13;;;;;;;28.75;6.80;;;;;;;11.68;97.44;100937.06;5035166;28;20041;-68
2021/12/30 03:47:44;;;;;;;27.27;7.45;;;;;;;11.86;97.25;100929.03;5034134;28;20041;-67
2021/12/30 03:50:20;;;;;;;21.95;6.53;;;;;;;11.88;97.52;100934.19;5035130;28;20076;-67
2021/12/30 03:52:54;;;;;;;26.25;7.40;;;;;;;11.93;97.19;100928.41;5034850;28;20398;-67
2021/12/30 03:55:22;;;;;;;33.65;8.00;;;;;;;11.93;96.70;100928.41;5034985;28;20454;-67
2021/12/30 03:57:52;;;;;;;36.13;7.60;;;;;;;11.82;97.27;100921.50;5033878;28;20053;-67
2021/12/30 04:00:20;;;;;;;24.35;7.47;;;;;;;11.93;97.31;100929.25;5033809;28;20041;-67
2021/12/30 04:02:47;;;;;;;37.20;8.75;;;;;;;11.88;97.51;100936.84;5034622;28;20068;-67
2021/12/30 04:05:14;;;;;;;22.08;7.70;;;;;;;11.96;97.04;100928.94;5032904;28;20045;-67
2021/12/30 04:07:41;;;;;;;25.15;7.13;;;;;;;11.97;96.88;100937.72;5017276;28;20057;-67
2021/12/30 04:10:12;;;;;;;28.52;7.47;;;;;;;12.02;97.03;100946.06;5034670;28;20038;-67
2021/12/30 04:12:40;;;;;;;26.58;7.07;;;;;;;11.95;97.48;100940.56;5033639;28;20038;-67
2021/12/30 04:15:08;;;;;;;19.27;6.70;;;;;;;11.89;98.23;100939.31;5017006;28;20042;-67
2021/12/30 04:17:35;;;;;;;20.10;6.88;;;;;;;11.97;98.05;100937.72;5017219;28;20494;-68
2021/12/30 04:20:07;;;;;;;19.45;6.35;;;;;;;11.90;98.14;100934.88;5034545;28;20107;-68
2021/12/30 04:22:36;;;;;;;21.88;6.25;;;;;;;11.94;98.34;100927.44;5037331;28;20506;-68
2021/12/30 04:25:05;;;;;;;16.83;6.18;;;;;;;11.82;99.06;100922.34;5033322;28;20037;-68
2021/12/30 04:27:33;;;;;;;15.00;5.60;;;;;;;12.01;98.45;100931.94;5017548;28;20041;-68
2021/12/30 04:29:59;;;;;;;24.77;5.95;;;;;;;11.97;99.15;100930.63;5032950;28;20049;-68
2021/12/30 04:32:26;;;;;;;16.73;5.38;;;;;;;12.04;98.88;100933.44;5031423;28;20065;-68
2021/12/30 04:34:53;;;;;;;16.92;5.38;;;;;;;12.07;99.25;100947.25;5033171;28;20056;-68
2021/12/30 04:37:20;;;;;;;14.52;5.88;;;;;;;12.16;98.57;100934.00;5034226;28;20061;-68
2021/12/30 04:39:46;;;;;;;17.85;6.07;;;;;;;12.10;98.43;100927.50;5034252;28;20104;-68
2021/12/30 04:42:13;;;;;;;17.17;5.80;;;;;;;12.17;98.59;100931.19;5016751;28;20052;-67
2021/12/30 04:44:43;;;;;;;14.00;6.03;;;;;;;12.17;98.09;100943.63;5031906;28;20524;-68
2021/12/30 04:47:11;;;;;;;19.20;6.63;;;;;;;12.13;98.63;100942.31;5033089;28;20053;-67
2021/12/30 04:49:37;;;;;;;16.73;6.50;;;;;;;12.05;98.79;100938.59;5032761;28;20442;-67
2021/12/30 04:52:04;;;;;;;16.23;6.03;;;;;;;12.09;98.69;100931.16;5033970;28;20402;-68
2021/12/30 04:54:31;;;;;;;16.73;6.55;;;;;;;12.03;99.59;100937.13;5033857;28;20041;-68
2021/12/30 04:56:59;;;;;;;13.82;6.28;;;;;;;12.06;99.28;100934.97;5033879;28;20071;-68
2021/12/30 04:59:26;;;;;;;15.93;6.13;;;;;;;11.98;99.85;100921.63;5032549;28;20056;-68
2021/12/30 05:01:52;;;;;;;12.38;5.40;;;;;;;11.99;99.59;100928.63;4997516;28;20041;-67
2021/12/30 05:04:19;;;;;;;12.30;5.40;;;;;;;12.02;99.62;100941.56;5028936;28;20054;-68
2021/12/30 05:06:46;;;;;;;15.43;5.25;;;;;;;12.15;99.38;100941.16;5033624;28;20504;-67
2021/12/30 05:09:13;;;;;;;12.18;4.63;;;;;;;12.29;98.96;100950.34;5032549;28;20086;-68
2021/12/30 05:11:41;;;;;;;10.55;4.50;;;;;;;12.19;99.75;100947.00;5033371;28;20410;-68
2021/12/30 05:14:09;;;;;;;14.18;4.90;;;;;;;12.32;99.58;100939.41;5033519;28;20049;-68
2021/12/30 05:16:37;;;;;;;15.05;4.50;;;;;;;12.38;98.96;100941.41;5033291;28;20391;-67
2021/12/30 05:19:05;;;;;;;8.75;4.43;;;;;;;12.29;99.47;100947.69;5032097;28;20041;-69
2021/12/30 05:21:32;;;;;;;12.88;4.53;;;;;;;12.41;99.46;100942.94;5032018;28;20103;-68
2021/12/30 05:24:00;;;;;;;11.00;4.15;;;;;;;12.43;98.79;100944.41;5016173;28;20044;-68
2021/12/30 05:26:28;;;;;;;10.18;4.15;;;;;;;12.49;98.97;100953.59;5031602;28;20072;-67
2021/12/30 05:28:57;;;;;;;10.80;4.63;;;;;;;12.46;99.37;100956.56;5032163;28;20444;-68
2021/12/30 05:31:25;;;;;;;11.18;4.22;;;;;;;12.60;99.16;100953.28;5013703;28;20391;-68
2021/12/30 05:33:52;;;;;;;11.27;4.18;;;;;;;12.60;98.87;100955.94;5032109;28;20048;-68
2021/12/30 05:36:19;;;;;;;12.38;4.45;;;;;;;12.53;99.36;100952.25;5011916;28;20083;-68
2021/12/30 05:38:46;;;;;;;10.93;4.65;;;;;;;12.65;99.00;100958.13;5015285;28;20383;-68
2021/12/30 05:41:13;;;;;;;10.38;4.43;;;;;;;12.71;98.95;100964.63;5032643;28;20055;-67
2021/12/30 05:43:39;;;;;;;10.75;4.50;;;;;;;12.65;98.79;100958.94;5012005;28;20038;-68
2021/12/30 05:46:07;;;;;;;8.23;3.80;;;;;;;12.70;98.98;100962.94;4998272;28;20506;-67
2021/12/30 05:48:34;;;;;;;9.77;3.97;;;;;;;12.71;98.93;100959.31;5027530;28;20120;-67
2021/12/30 05:51:01;;;;;;;10.55;4.22;;;;;;;12.67;98.06;100951.63;5039812;28;20120;-67
2021/12/30 05:53:29;;;;;;;8.40;3.83;;;;;;;12.59;98.59;100958.78;5036267;28;20034;-67
2021/12/30 05:55:57;;;;;;;8.90;4.30;;;;;;;12.73;98.70;100963.47;5033319;28;20049;-68
2021/12/30 05:58:24;;;;;;;8.75;4.30;;;;;;;12.82;98.30;100959.84;5032034;28;20388;-67
2021/12/30 06:00:51;;;;;;;10.93;4.47;;;;;;;12.72;98.22;100967.13;5039400;28;20041;-67
2021/12/30 06:03:19;;;;;;;9.23;4.47;;;;;;;12.72;98.48;100969.78;5037957;28;20124;-68
2021/12/30 06:05:47;;;;;;;9.48;4.38;;;;;;;12.84;98.27;100965.84;5038615;28;20552;-68
2021/12/30 06:08:14;;;;;;;12.30;4.80;;;;;;;12.82;98.08;100969.63;5013085;28;20052;-68
2021/12/30 06:10:43;;;;;;;10.45;5.00;;;;;;;12.92;97.85;100969.50;5011441;28;20077;-68
2021/12/30 06:13:11;;;;;;;9.13;4.70;;;;;;;12.87;97.39;100975.31;5021464;28;20060;-68
2021/12/30 06:15:38;;;;;;;10.60;4.75;;;;;;;12.93;97.84;100987.97;5032420;28;20048;-67
2021/12/30 06:18:05;;;;;;;9.13;4.78;;;;;;;12.82;98.25;100988.28;5031358;28;20045;-68
2021/12/30 06:20:32;;;;;;;13.07;4.65;;;;;;;12.96;97.84;100984.16;5032334;28;20046;-68
2021/12/30 06:22:59;;;;;;;9.88;4.68;;;;;;;12.92;98.13;100988.97;5066585;28;20092;-67
2021/12/30 06:25:26;;;;;;;11.15;4.70;;;;;;;13.03;97.63;100995.81;5054864;28;20041;-67
2021/12/30 06:27:55;;;;;;;7.75;3.85;;;;;;;13.10;97.28;100998.63;5054529;28;20416;-67
2021/12/30 06:30:21;;;;;;;7.40;4.20;;;;;;;13.04;97.50;101002.78;5037894;28;20405;-67
2021/12/30 06:32:48;;;;;;;8.88;4.10;;;;;;;13.08;96.67;100988.19;5038265;28;20045;-67
2021/12/30 06:35:15;;;;;;;7.80;3.88;;;;;;;13.04;97.00;101008.97;5052763;28;20071;-67
2021/12/30 06:37:42;;;;;;;8.15;3.67;;;;;;;13.10;96.65;101007.47;5054363;28;20060;-67
2021/12/30 06:40:12;;;;;;;7.72;3.83;;;;;;;13.13;96.65;101004.47;5054634;28;20051;-67
2021/12/30 06:42:41;;;;;;;7.55;3.47;;;;;;;13.05;96.85;101010.63;5055109;28;20033;-67
2021/12/30 06:45:08;;;;;;;8.35;2.97;;;;;;;13.05;96.25;101007.13;5054820;28;20496;-66
2021/12/30 06:47:39;;;;;;;7.82;3.17;;;;;;;13.11;96.46;101025.13;5054127;28;20056;-67
2021/12/30 06:50:07;;;;;;;6.35;3.10;;;;;;;13.03;96.37;101009.97;5054546;28;20052;-66
2021/12/30 06:52:34;;;;;;;8.32;3.38;;;;;;;13.01;96.08;101021.78;5054336;28;20090;-66
2021/12/30 06:55:01;;;;;;;8.50;3.50;;;;;;;13.18;95.73;101009.31;5054398;28;20090;-68
2021/12/30 06:57:28;;;;;;;6.90;3.47;;;;;;;13.15;96.11;101006.97;5072183;28;20044;-68
2021/12/30 06:59:55;;;;;;;7.28;3.53;;;;;;;13.15;96.01;101017.63;5054149;28;20123;-68
2021/12/30 07:02:23;;;;;;;9.38;3.88;;;;;;;13.19;95.68;101011.81;5053824;28;20493;-68
2021/12/30 07:04:49;;;;;;;8.98;3.42;;;;;;;13.19;95.68;101011.81;5069950;28;20044;-68
2021/12/30 07:07:16;;;;;;;9.35;3.83;;;;;;;13.29;95.54;101005.50;5038005;28;20041;-67
2021/12/30 07:09:43;;;;;;;7.60;3.53;;;;;;;13.21;95.77;101009.81;5057383;28;20132;-68
2021/12/30 07:12:10;;;;;;;8.48;3.42;;;;;;;13.12;96.59;101024.13;5041483;28;20466;-68
2021/12/30 07:14:37;;;;;;;8.00;3.70;;;;;;;13.15;96.81;101020.28;5075292;28;20043;-68
2021/12/30 07:17:03;;;;;;;7.75;3.20;;;;;;;13.15;96.56;101018.50;5041189;28;20052;-68
2021/12/30 07:19:30;;;;;;;7.40;3.40;;;;;;;13.24;96.29;101029.97;5057765;28;20523;-68
2021/12/30 07:21:57;;;;;;;7.05;3.30;;;;;;;13.25;95.72;101035.13;5045729;28;20473;-68
2021/12/30 07:24:24;;;;;;;6.82;3.50;;;;;;;13.18;96.30;101027.97;5017892;28;20158;-68
2021/12/30 07:26:51;;;;;;;7.38;3.60;;;;;;;13.04;96.57;101038.28;5034459;28;20087;-68
2021/12/30 07:29:18;;;;;;;6.93;3.55;;;;;;;13.09;96.72;101045.75;5034239;28;20435;-68
2021/12/30 07:31:46;;;;;;;7.45;3.45;;;;;;;13.15;96.53;101045.13;5016434;28;20045;-67
2021/12/30 07:34:13;;;;;;;6.55;3.25;;;;;;;13.00;96.63;101052.06;5034217;28;20037;-68
2021/12/30 07:36:40;;;;;;;7.03;3.63;;;;;;;13.21;95.96;101056.94;5032259;28;20033;-68
2021/12/30 07:39:06;;;;;;;5.93;3.15;;;;;;;13.14;96.17;101077.25;5017644;28;20045;-68
2021/12/30 07:41:33;;;;;;;8.45;3.40;;;;;;;13.12;96.29;101071.25;5017605;28;20513;-68
2021/12/30 07:44:00;;;;;;;8.25;3.00;;;;;;;13.14;95.36;101083.41;5033554;28;20046;-68
2021/12/30 07:46:27;;;;;;;5.57;2.58;;;;;;;13.28;95.13;101084.59;5035052;28;20525;-68
2021/12/30 07:48:54;;;;;;;7.10;3.13;;;;;;;13.11;95.69;101088.22;5033698;28;20050;-68
2021/12/30 07:51:21;;;;;;;6.93;2.97;;;;;;;13.22;95.16;101090.56;5034115;28;20045;-68
2021/12/30 07:53:48;;;;;;;10.27;3.30;;;;;;;13.20;95.45;101095.22;5034034;28;20442;-68
2021/12/30 07:56:15;;;;;;;7.57;3.20;;;;;;;13.12;95.92;101109.38;5033601;28;20041;-68
2021/12/30 07:58:41;;;;;;;7.75;3.22;;;;;;;13.18;96.08;101115.88;5033601;28;20418;-68
2021/12/30 08:01:08;;;;;;;8.55;3.20;;;;;;;13.23;94.99;101109.06;5034931;28;20045;-67
2021/12/30 08:03:35;;;;;;;8.32;3.15;;;;;;;13.13;95.73;101118.19;5038447;28;20887;-68
2021/12/30 08:06:02;;;;;;;7.22;3.22;;;;;;;13.13;95.78;101124.34;5036190;28;20050;-68
2021/12/30 08:08:28;;;;;;;6.10;3.17;;;;;;;13.29;95.40;101126.22;5017450;28;20048;-68
2021/12/30 08:10:56;;;;;;;8.50;3.58;;;;;;;13.31;95.20;101120.75;5034375;28;20111;-68
2021/12/30 08:13:24;;;;;;;7.05;3.20;;;;;;;13.23;94.85;101129.53;5033392;28;20125;-68
2021/12/30 08:15:51;;;;;;;11.82;3.70;;;;;;;13.14;95.79;101133.19;5001161;28;20454;-68
2021/12/30 08:18:18;;;;;;;5.75;3.22;;;;;;;13.23;96.00;101137.53;5034643;28;20136;-68
2021/12/30 08:20:45;;;;;;;8.63;3.70;;;;;;;13.30;95.46;101141.22;5033319;28;20049;-68
2021/12/30 08:23:12;;;;;;;7.55;3.60;;;;;;;13.29;95.81;101144.88;5033044;28;20052;-68
2021/12/30 08:25:39;;;;;;;7.45;3.80;;;;;;;13.15;95.84;101149.00;5032715;28;20577;-68
2021/12/30 08:28:07;;;;;;;8.02;3.50;;;;;;;13.20;96.53;101154.66;5014237;28;20499;-68
2021/12/30 08:30:34;;;;;;;8.45;3.85;;;;;;;13.11;96.91;101144.16;5011528;28;20494;-68
2021/12/30 08:33:01;;;;;;;8.35;3.83;;;;;;;13.05;97.85;101153.63;5014525;28;20048;-68
2021/12/30 08:35:28;;;;;;;10.88;3.88;;;;;;;13.11;97.12;101147.63;5020422;28;20420;-68
2021/12/30 08:37:54;;;;;;;10.32;4.43;;;;;;;13.08;97.71;101150.66;5033556;28;20041;-68
2021/12/30 08:40:22;;;;;;;9.15;4.10;;;;;;;13.07;97.88;101154.28;5034008;28;20044;-68
2021/12/30 08:42:49;;;;;;;7.72;3.88;;;;;;;13.12;98.17;101154.66;5033187;28;20103;-68
2021/12/30 08:45:16;;;;;;;8.93;4.07;;;;;;;13.05;97.78;101166.94;5033809;28;20514;-68
2021/12/30 08:47:44;;;;;;;8.85;4.40;;;;;;;12.99;98.29;101170.25;5032844;28;20512;-68
2021/12/30 08:50:14;;;;;;;8.45;3.75;;;;;;;13.07;98.49;101171.09;5035534;28;20102;-68
2021/12/30 08:52:43;;;;;;;8.55;3.47;;;;;;;12.93;98.90;101166.38;5031688;28;20057;-68
2021/12/30 08:55:11;;;;;;;7.28;3.72;;;;;;;13.00;98.08;101169.22;5032583;28;20050;-68
2021/12/30 08:57:40;;;;;;;7.90;3.40;;;;;;;13.00;97.90;101171.91;5032608;28;20517;-68
2021/12/30 09:00:12;;;;;;;9.00;3.28;;;;;;;13.13;97.67;101177.59;5015848;28;20045;-68
2021/12/30 09:02:39;;;;;;;6.72;3.40;;;;;;;13.04;97.79;101168.78;5033505;28;20092;-68
2021/12/30 09:05:07;;;;;;;9.00;3.08;;;;;;;13.13;97.41;101174.13;5014215;28;20071;-68
2021/12/30 09:07:34;;;;;;;9.18;3.60;;;;;;;13.13;97.41;101161.63;5042812;28;20489;-68
2021/12/30 09:10:01;;;;;;;6.80;3.25;;;;;;;13.23;96.65;101162.34;5019179;28;20045;-68
2021/12/30 09:12:28;;;;;;;8.43;3.22;;;;;;;13.26;96.75;101158.50;5032342;28;20045;-68
2021/12/30 09:15:17;;;;;;;8.68;3.00;;;;;;;13.34;95.74;101166.56;5033479;28;20041;-67
2021/12/30 09:17:45;;;;;;;7.00;3.10;;;;;;;13.25;96.13;101164.84;5033283;28;20402;-67
2021/12/30 09:20:13;;;;;;;7.03;3.17;;;;;;;13.15;96.80;101162.31;5033416;28;20398;-68
2021/12/30 09:22:40;;;;;;;7.72;2.90;;;;;;;13.34;95.75;101181.72;5061741;28;20045;-68
2021/12/30 09:25:08;;;;;;;7.38;3.15;;;;;;;13.30;95.42;101178.53;5073067;28;20045;-67
2021/12/30 09:27:37;;;;;;;8.18;2.80;;;;;;;13.31;95.48;101182.03;5073241;28;20045;-67
2021/12/30 09:30:06;;;;;;;7.15;2.92;;;;;;;13.42;95.03;101177.28;5054839;28;20111;-67
2021/12/30 09:32:35;;;;;;;5.85;2.78;;;;;;;13.36;95.15;101196.56;5038758;28;20044;-67
2021/12/30 09:35:03;;;;;;;7.45;3.10;;;;;;;13.44;95.14;101201.94;5069714;28;20128;-68
2021/12/30 09:37:30;;;;;;;9.02;2.80;;;;;;;13.44;94.44;101203.72;5057424;28;20050;-67
2021/12/30 09:39:59;;;;;;;6.95;2.50;;;;;;;13.49;94.03;101204.09;5054688;28;20055;-67
2021/12/30 09:42:26;;;;;;;6.53;2.67;;;;;;;13.63;93.40;101202.63;5072663;28;20044;-67
2021/12/30 09:44:54;;;;;;;7.30;2.47;;;;;;;13.63;92.77;101208.78;5072793;28;20109;-67
2021/12/30 09:47:21;;;;;;;4.60;2.10;;;;;;;13.67;92.83;101214.63;5055147;28;20441;-67
2021/12/30 09:49:50;;;;;;;4.95;2.00;;;;;;;13.73;92.59;101213.16;5072663;28;20049;-67
2021/12/30 09:52:18;;;;;;;4.72;2.03;;;;;;;13.72;92.58;101212.31;5072689;28;20040;-67
2021/12/30 09:54:44;;;;;;;4.97;2.00;;;;;;;13.75;92.07;101216.47;5092621;28;20554;-67
2021/12/30 09:57:11;;;;;;;4.97;2.13;;;;;;;13.72;92.20;101206.16;5092399;28;20040;-67
2021/12/30 09:59:38;;;;;;;5.88;2.20;;;;;;;13.68;92.86;101210.13;5092673;28;20086;-67
2021/12/30 10:02:05;;;;;;;4.85;2.10;;;;;;;13.79;91.97;101207.19;5052051;28;20032;-67
2021/12/30 10:04:34;;;;;;;5.05;2.30;;;;;;;13.90;91.80;101203.34;5052691;28;20044;-68
2021/12/30 10:07:16;;;;;;;7.40;2.42;;;;;;;13.94;90.96;101199.38;5054903;28;20049;-67
2021/12/30 10:09:52;;;;;;;6.32;2.50;;;;;;;13.90;91.64;101193.53;5072298;28;20048;-67
2021/12/30 10:12:40;;;;;;;4.72;2.35;;;;;;;13.90;91.59;101200.66;5072363;28;20036;-67
2021/12/30 10:15:07;;;;;;;4.82;2.38;;;;;;;13.98;90.84;101196.19;5066268;28;20063;-67
2021/12/30 10:17:34;;;;;;;7.03;2.53;;;;;;;13.97;91.14;101212.34;5059868;28;20157;-67
2021/12/30 10:20:24;;;;;;;7.40;3.30;;;;;;;13.94;91.30;101215.38;5058158;28;20118;-67
2021/12/30 10:22:52;;;;;;;6.47;2.67;;;;;;;13.91;91.32;101216.50;5074504;28;20051;-67
2021/12/30 10:25:37;;;;;;;5.93;2.50;;;;;;;13.88;91.27;101221.34;5074341;28;20048;-67
2021/12/30 10:28:34;;;;;;;7.68;2.78;;;;;;;13.85;91.54;101235.03;5092519;28;20050;-67
2021/12/30 10:31:20;;;;;;;6.82;2.60;;;;;;;13.93;90.84;101241.19;5090588;28;20044;-67
2021/12/30 10:33:59;;;;;;;4.95;2.47;;;;;;;13.87;91.53;101246.34;5042070;28;20396;-67
2021/12/30 10:36:31;;;;;;;8.32;2.90;;;;;;;14.01;90.71;101251.06;5056794;28;20127;-67
2021/12/30 10:39:31;;;;;;;8.07;3.30;;;;;;;13.90;90.66;101249.53;5071843;28;20048;-68
2021/12/30 10:42:10;;;;;;;10.70;3.05;;;;;;;13.95;90.08;101243.69;5023741;28;20053;-67
2021/12/30 10:44:54;;;;;;;9.55;2.72;;;;;;;13.94;90.35;101242.88;5056562;28;20040;-67
2021/12/30 10:47:24;;;;;;;7.50;2.50;;;;;;;14.04;89.66;101241.88;5058200;28;20072;-67
2021/12/30 10:50:03;;;;;;;6.45;2.38;;;;;;;14.01;88.85;101253.72;5058264;28;20041;-67
2021/12/30 10:52:30;;;;;;;6.47;2.80;;;;;;;14.10;88.92;101242.06;5042511;28;20055;-67
2021/12/30 10:54:59;;;;;;;7.43;2.63;;;;;;;14.09;88.95;101243.03;5058281;28;20494;-67
2021/12/30 10:57:29;;;;;;;10.52;2.95;;;;;;;14.12;88.71;101240.06;5041613;28;20055;-67
2021/12/30 10:59:56;;;;;;;8.43;2.80;;;;;;;14.29;87.77;101240.06;5058148;28;20094;-67
2021/12/30 11:02:26;;;;;;;9.75;3.00;;;;;;;14.26;87.16;101235.06;5075539;28;20045;-68
2021/12/30 11:04:57;;;;;;;8.05;3.08;;;;;;;14.26;87.41;101235.91;5073939;28;20040;-67
2021/12/30 11:07:43;;;;;;;13.18;3.58;;;;;;;14.16;86.85;101229.88;5025279;28;20134;-67
2021/12/30 11:10:11;;;;;;;9.88;3.15;;;;;;;14.16;87.34;101243.22;5041395;28;20045;-67
2021/12/30 11:12:44;;;;;;;7.65;2.92;;;;;;;14.23;86.80;101238.91;5057856;28;20059;-67
2021/12/30 11:15:22;;;;;;;8.93;3.20;;;;;;;14.27;86.64;101244.75;5075609;28;20044;-67
2021/12/30 11:17:49;;;;;;;9.30;3.03;;;;;;;14.07;86.89;101226.38;5025092;28;20048;-67
2021/12/30 11:20:18;;;;;;;9.65;2.90;;;;;;;14.18;86.61;101243.91;5058116;28;20052;-68
2021/12/30 11:22:48;;;;;;;15.07;3.33;;;;;;;14.30;86.38;101239.91;5075027;28;20099;-67
2021/12/30 11:25:18;;;;;;;11.82;3.30;;;;;;;14.20;86.40;101236.56;5057938;28;20083;-67
2021/12/30 11:27:46;;;;;;;8.95;3.20;;;;;;;14.26;86.14;101232.38;5057739;28;20326;-67
2021/12/30 11:30:16;;;;;;;10.02;2.83;;;;;;;14.23;86.29;101230.91;5055980;28;20040;-68
2021/12/30 11:32:47;;;;;;;11.45;3.45;;;;;;;14.25;85.92;101228.91;5057874;28;20049;-67